Time;durP1;ratioP1;P1;durP2;ratioP2;P2;SDS_P1;SDS_P2;PMS_P1;PMS_P2;Temp;Humidity;BMP_temperature;BMP_pressure;BME280_temperature;BME280_humidity;BME280_pressure;Samples;Min_cycle;Max_cycle;Signal;HPM_P1;HPM_P2
2020/12/31 00:00:20;;;;;;;15.75;6.87;;;;;;;8.88;85.14;99845.69;1679666;85;21324;-67
2020/12/31 00:02:47;;;;;;;18.45;7.58;;;;;;;8.86;85.14;99847.77;1679482;84;21722;-66
2020/12/31 00:05:15;;;;;;;19.05;7.50;;;;;;;8.84;85.18;99852.59;1679501;84;21645;-67
2020/12/31 00:07:42;;;;;;;18.60;7.80;;;;;;;8.82;85.22;99847.85;1679621;85;21728;-66
2020/12/31 00:10:10;;;;;;;19.75;7.28;;;;;;;8.79;85.27;99844.16;1679807;85;21976;-66
2020/12/31 00:12:37;;;;;;;16.42;6.90;;;;;;;8.77;85.31;99847.61;1679486;84;21456;-68
2020/12/31 00:15:05;;;;;;;17.90;6.95;;;;;;;8.76;85.34;99839.09;1681240;84;21042;-67
2020/12/31 00:17:32;;;;;;;20.32;7.65;;;;;;;8.73;85.37;99841.70;1701565;84;21074;-67
2020/12/31 00:20:00;;;;;;;17.67;6.97;;;;;;;8.73;85.50;99840.86;1701611;83;21788;-67
2020/12/31 00:22:27;;;;;;;21.23;7.58;;;;;;;8.72;85.56;99840.53;1701733;83;21822;-69
2020/12/31 00:24:55;;;;;;;20.57;7.03;;;;;;;8.72;85.62;99842.74;1701844;83;21082;-67
2020/12/31 00:27:22;;;;;;;17.07;7.20;;;;;;;8.71;85.61;99841.58;1701571;84;21331;-67
2020/12/31 00:29:50;;;;;;;17.12;7.47;;;;;;;8.71;85.64;99841.58;1701705;83;21074;-66
2020/12/31 00:32:17;;;;;;;18.57;8.25;;;;;;;8.69;85.69;99840.41;1701586;83;21360;-68
2020/12/31 00:34:45;;;;;;;24.32;7.22;;;;;;;8.68;85.74;99841.45;1701685;83;21081;-68
2020/12/31 00:37:13;;;;;;;18.85;7.87;;;;;;;8.66;85.80;99837.23;1701872;83;21803;-66
2020/12/31 00:39:40;;;;;;;20.72;8.00;;;;;;;8.65;85.87;99843.22;1701591;84;21090;-67
2020/12/31 00:42:08;;;;;;;17.48;8.25;;;;;;;8.64;85.92;99840.69;1701679;84;21066;-67
2020/12/31 00:44:35;;;;;;;19.55;8.35;;;;;;;8.64;86.00;99836.59;1701639;83;21370;-67
2020/12/31 00:47:02;;;;;;;19.15;7.97;;;;;;;8.63;86.11;99839.00;1701634;84;21358;-67
2020/12/31 00:49:30;;;;;;;15.95;7.70;;;;;;;8.63;86.20;99843.09;1701524;83;21082;-68
2020/12/31 00:51:58;;;;;;;22.40;8.35;;;;;;;8.64;86.22;99839.32;1701675;83;21046;-66
2020/12/31 00:54:25;;;;;;;24.87;7.80;;;;;;;8.63;86.28;99846.67;1701455;83;21109;-67
2020/12/31 00:56:53;;;;;;;25.48;9.00;;;;;;;8.64;86.30;99848.87;1701535;83;21322;-68
2020/12/31 00:59:21;;;;;;;21.15;8.55;;;;;;;8.63;86.37;99845.30;1701643;83;21062;-69
2020/12/31 01:01:49;;;;;;;21.82;8.28;;;;;;;8.64;86.40;99845.62;1701566;83;21328;-69
2020/12/31 01:04:16;;;;;;;16.60;7.85;;;;;;;8.64;86.43;99851.61;1701587;84;21089;-67
2020/12/31 01:06:44;;;;;;;19.95;8.43;;;;;;;8.64;86.46;99851.61;1701685;83;21353;-66
2020/12/31 01:09:11;;;;;;;19.67;9.25;;;;;;;8.64;86.56;99849.72;1701570;84;21078;-67
2020/12/31 01:11:39;;;;;;;24.45;8.53;;;;;;;8.66;86.60;99849.00;1701547;83;21400;-67
2020/12/31 01:14:07;;;;;;;21.65;8.18;;;;;;;8.69;86.66;99849.13;1701783;83;21237;-65
2020/12/31 01:16:34;;;;;;;20.85;8.50;;;;;;;8.71;86.64;99841.05;1701575;83;21085;-67
2020/12/31 01:19:02;;;;;;;18.98;8.43;;;;;;;8.72;86.62;99846.00;1701609;84;21777;-68
2020/12/31 01:21:30;;;;;;;24.27;8.68;;;;;;;8.72;86.62;99845.48;1701730;83;21320;-67
2020/12/31 01:23:58;;;;;;;21.10;8.25;;;;;;;8.72;86.60;99842.74;1701553;83;21814;-66
2020/12/31 01:26:32;;;;;;;17.62;7.22;;;;;;;8.72;86.61;99841.37;1701682;83;21492;-66
2020/12/31 01:29:00;;;;;;;18.10;8.75;;;;;;;8.73;86.54;99846.31;1701637;83;21042;-66
2020/12/31 01:31:27;;;;;;;18.80;7.95;;;;;;;8.72;86.54;99844.62;1701664;83;21609;-67
2020/12/31 01:33:55;;;;;;;19.67;8.30;;;;;;;8.72;86.56;99848.73;1701801;84;21212;-67
2020/12/31 01:36:23;;;;;;;23.57;8.05;;;;;;;8.72;86.61;99848.20;1701746;83;21101;-66
2020/12/31 01:38:51;;;;;;;18.70;8.88;;;;;;;8.74;86.60;99849.37;1701563;83;21241;-67
2020/12/31 01:41:24;;;;;;;20.37;8.23;;;;;;;8.73;86.56;99850.41;1701639;83;21811;-66
2020/12/31 01:44:11;;;;;;;18.73;8.75;;;;;;;8.72;86.55;99843.27;1701680;83;22088;-68
2020/12/31 01:46:42;;;;;;;19.32;9.00;;;;;;;8.72;86.58;99847.36;1701651;83;21089;-67
2020/12/31 01:49:10;;;;;;;18.52;8.80;;;;;;;8.71;86.65;99845.67;1701633;83;21248;-68
2020/12/31 01:51:38;;;;;;;20.52;8.00;;;;;;;8.70;86.72;99842.63;1700634;83;21217;-68
2020/12/31 01:54:06;;;;;;;23.05;7.80;;;;;;;8.70;86.71;99848.08;1701617;84;21312;-69
2020/12/31 01:56:34;;;;;;;18.73;8.95;;;;;;;8.69;86.80;99839.56;1701434;83;21914;-64
2020/12/31 01:59:02;;;;;;;17.85;8.65;;;;;;;8.68;86.85;99841.98;1701727;83;21066;-67
2020/12/31 02:01:29;;;;;;;19.65;9.18;;;;;;;8.66;86.98;99833.98;1701636;84;21062;-66
2020/12/31 02:03:58;;;;;;;23.92;9.98;;;;;;;8.67;87.13;99830.73;1704750;82;21074;-68
2020/12/31 02:06:27;;;;;;;15.80;7.95;;;;;;;8.68;87.22;99832.42;1732352;82;21305;-66
2020/12/31 02:08:55;;;;;;;19.20;8.83;;;;;;;8.69;87.28;99836.84;1732449;82;21357;-69
2020/12/31 02:11:24;;;;;;;15.58;8.45;;;;;;;8.69;87.37;99836.84;1732347;82;21220;-68
2020/12/31 02:13:51;;;;;;;19.45;9.50;;;;;;;8.69;87.46;99834.95;1732257;82;21042;-66
2020/12/31 02:16:21;;;;;;;18.65;9.33;;;;;;;8.70;87.53;99827.60;1728509;82;21089;-66
2020/12/31 02:19:00;;;;;;;22.07;8.98;;;;;;;8.69;87.63;99821.81;1718592;83;21453;-68
2020/12/31 02:21:34;;;;;;;20.82;8.98;;;;;;;8.69;87.66;99819.09;1739085;81;21368;-67
2020/12/31 02:24:06;;;;;;;16.60;8.25;;;;;;;8.68;87.72;99814.67;1739183;82;21089;-68
2020/12/31 02:26:35;;;;;;;17.98;8.10;;;;;;;8.66;87.73;99814.86;1739242;81;21779;-66
2020/12/31 02:29:04;;;;;;;18.62;9.35;;;;;;;8.67;87.85;99817.92;1739184;81;21317;-68
2020/12/31 02:31:32;;;;;;;18.98;8.53;;;;;;;8.66;87.96;99820.33;1739236;81;21100;-67
2020/12/31 02:34:00;;;;;;;20.32;8.63;;;;;;;8.67;88.07;99812.98;1739403;81;21108;-68
2020/12/31 02:36:30;;;;;;;19.65;8.08;;;;;;;8.66;88.08;99809.41;1739449;81;21104;-67
2020/12/31 02:38:59;;;;;;;17.92;8.88;;;;;;;8.67;88.12;99817.08;1739226;81;21069;-67
2020/12/31 02:41:27;;;;;;;20.27;9.15;;;;;;;8.67;88.13;99810.25;1739298;81;21450;-67
2020/12/31 02:43:54;;;;;;;18.42;8.83;;;;;;;8.69;88.19;99810.89;1739307;81;21408;-68
2020/12/31 02:46:22;;;;;;;21.07;9.10;;;;;;;8.68;88.24;99801.86;1739509;81;21203;-67
2020/12/31 02:48:50;;;;;;;17.17;8.38;;;;;;;8.69;88.28;99804.06;1739653;81;21235;-66
2020/12/31 02:51:18;;;;;;;17.60;8.73;;;;;;;8.68;88.35;99807.84;1739244;81;21796;-68
2020/12/31 02:53:46;;;;;;;17.00;7.40;;;;;;;8.68;88.39;99812.78;1739361;81;21953;-67
2020/12/31 02:56:18;;;;;;;16.97;8.10;;;;;;;8.69;88.41;99814.47;1739408;82;21038;-69
2020/12/31 02:58:46;;;;;;;21.30;8.78;;;;;;;8.69;88.44;99810.89;1739276;82;21815;-68
2020/12/31 03:01:14;;;;;;;23.85;9.60;;;;;;;8.69;88.47;99817.72;1739638;82;21332;-66
2020/12/31 03:03:42;;;;;;;20.85;9.25;;;;;;;8.66;88.50;99805.83;1739300;81;21801;-67
2020/12/31 03:06:09;;;;;;;22.02;8.85;;;;;;;8.65;88.57;99806.88;1739354;82;21038;-68
2020/12/31 03:08:38;;;;;;;19.98;8.03;;;;;;;8.64;88.60;99800.56;1739433;81;21339;-68
2020/12/31 03:11:16;;;;;;;20.65;7.78;;;;;;;8.64;88.66;99796.47;1739285;81;21116;-69
2020/12/31 03:13:43;;;;;;;18.17;7.33;;;;;;;8.64;88.70;99791.53;1739493;81;21249;-67
2020/12/31 03:16:11;;;;;;;15.32;6.83;;;;;;;8.63;88.77;99788.48;1738096;82;21096;-68
2020/12/31 03:18:39;;;;;;;19.05;7.83;;;;;;;8.61;88.80;99790.05;1721509;83;21078;-70
2020/12/31 03:21:07;;;;;;;23.18;7.60;;;;;;;8.62;88.86;99788.16;1721669;83;21826;-67
2020/12/31 03:23:34;;;;;;;18.85;7.50;;;;;;;8.62;88.92;99787.64;1721325;83;21446;-66
2020/12/31 03:26:01;;;;;;;17.12;8.40;;;;;;;8.62;88.93;99782.17;1721126;83;21330;-67
2020/12/31 03:28:29;;;;;;;17.40;8.23;;;;;;;8.63;88.94;99778.40;1650606;85;21204;-68
2020/12/31 03:30:56;;;;;;;22.42;9.20;;;;;;;8.64;88.99;99768.32;1650880;86;21174;-68
2020/12/31 03:33:23;;;;;;;19.52;8.73;;;;;;;8.65;89.02;99764.55;1650801;85;21315;-68
2020/12/31 03:35:51;;;;;;;21.50;9.00;;;;;;;8.65;89.02;99770.01;1650548;85;21358;-69
2020/12/31 03:38:19;;;;;;;23.92;9.05;;;;;;;8.61;88.98;99768.20;1650605;85;21061;-67
2020/12/31 03:40:47;;;;;;;20.27;8.63;;;;;;;8.63;89.03;99781.66;1650635;85;21209;-66
2020/12/31 03:43:14;;;;;;;23.98;9.45;;;;;;;8.63;89.03;99782.50;1650598;85;21061;-67
2020/12/31 03:45:42;;;;;;;22.27;9.95;;;;;;;8.63;89.02;99776.19;1650627;87;21100;-68
2020/12/31 03:48:10;;;;;;;22.65;9.63;;;;;;;8.63;89.02;99773.46;1650548;85;21167;-68
2020/12/31 03:50:38;;;;;;;18.62;8.43;;;;;;;8.62;89.03;99774.50;1650602;87;21403;-69
2020/12/31 03:53:06;;;;;;;22.32;9.55;;;;;;;8.62;89.00;99766.31;1650603;85;21104;-68
2020/12/31 03:55:33;;;;;;;22.00;8.90;;;;;;;8.62;88.97;99770.41;1650579;85;21830;-67
2020/12/31 03:58:01;;;;;;;18.75;8.63;;;;;;;8.61;88.97;99761.89;1650851;85;21506;-68
2020/12/31 04:00:28;;;;;;;17.95;8.43;;;;;;;8.58;88.96;99760.41;1650591;85;21472;-66
2020/12/31 04:02:55;;;;;;;21.07;8.95;;;;;;;8.58;88.99;99766.72;1650755;87;21159;-69
2020/12/31 04:05:23;;;;;;;26.02;9.65;;;;;;;8.57;88.99;99766.39;1650474;85;21399;-67
2020/12/31 04:07:50;;;;;;;22.98;10.20;;;;;;;8.55;89.05;99770.37;1650635;85;21348;-67
2020/12/31 04:10:18;;;;;;;21.15;9.20;;;;;;;8.55;89.08;99772.58;1650477;85;21155;-68
2020/12/31 04:12:46;;;;;;;21.55;9.60;;;;;;;8.56;89.07;99775.62;1650538;87;22174;-67
2020/12/31 04:15:13;;;;;;;26.33;9.75;;;;;;;8.60;89.08;99772.50;1651023;86;21391;-68
2020/12/31 04:17:41;;;;;;;19.27;9.35;;;;;;;8.59;88.99;99778.48;1665052;84;21096;-67
2020/12/31 04:20:08;;;;;;;25.50;9.55;;;;;;;8.57;88.96;99778.68;1718572;83;21749;-68
2020/12/31 04:22:35;;;;;;;20.05;9.45;;;;;;;8.56;88.92;99776.15;1718752;83;21150;-67
2020/12/31 04:25:03;;;;;;;23.87;9.70;;;;;;;8.55;88.87;99775.83;1739109;81;21292;-66
2020/12/31 04:27:31;;;;;;;26.37;10.00;;;;;;;8.55;88.87;99778.03;1739312;81;21093;-68
2020/12/31 04:29:59;;;;;;;24.98;10.03;;;;;;;8.55;88.86;99780.77;1739286;82;21285;-69
2020/12/31 04:32:26;;;;;;;21.80;9.65;;;;;;;8.55;88.83;99772.58;1739213;81;21033;-68
2020/12/31 04:34:53;;;;;;;21.25;9.90;;;;;;;8.56;88.81;99775.62;1739411;81;21462;-68
2020/12/31 04:37:21;;;;;;;22.10;10.45;;;;;;;8.57;88.74;99782.77;1739134;82;21286;-69
2020/12/31 04:39:48;;;;;;;30.85;11.12;;;;;;;8.56;88.67;99789.28;1739215;81;21053;-69
2020/12/31 04:42:15;;;;;;;26.05;10.30;;;;;;;8.57;88.62;99800.52;1739256;81;21304;-68
2020/12/31 04:44:43;;;;;;;26.50;10.95;;;;;;;8.57;88.54;99801.89;1739511;82;21183;-69
2020/12/31 04:47:17;;;;;;;22.52;9.80;;;;;;;8.57;88.46;99811.45;1739153;81;21356;-67
2020/12/31 04:49:53;;;;;;;24.90;10.65;;;;;;;8.57;88.43;99814.17;1739238;81;21582;-67
2020/12/31 04:52:20;;;;;;;28.30;10.80;;;;;;;8.57;88.37;99816.91;1739868;81;21483;-69
2020/12/31 04:54:47;;;;;;;20.30;9.93;;;;;;;8.57;88.23;99815.55;1739246;81;21030;-65
2020/12/31 04:57:15;;;;;;;21.05;9.43;;;;;;;8.55;88.12;99812.16;1739227;81;21837;-67
2020/12/31 04:59:42;;;;;;;22.48;9.43;;;;;;;8.56;87.93;99822.05;1739325;82;21829;-67
2020/12/31 05:02:11;;;;;;;17.05;9.00;;;;;;;8.54;87.78;99815.94;1739431;82;21101;-68
2020/12/31 05:04:38;;;;;;;20.75;9.18;;;;;;;8.54;87.68;99817.30;1739116;81;21799;-69
2020/12/31 05:07:07;;;;;;;21.10;8.78;;;;;;;8.53;87.52;99825.17;1739234;81;21258;-69
2020/12/31 05:09:34;;;;;;;22.25;9.93;;;;;;;8.52;87.41;99824.85;1739144;81;21824;-66
2020/12/31 05:12:01;;;;;;;22.90;9.50;;;;;;;8.54;87.26;99825.50;1732708;81;21205;-67
2020/12/31 05:14:36;;;;;;;23.20;9.20;;;;;;;8.54;87.10;99824.66;1730379;82;21111;-68
2020/12/31 05:17:18;;;;;;;20.55;9.93;;;;;;;8.53;86.94;99832.00;1730552;83;21122;-68
2020/12/31 05:19:45;;;;;;;18.42;8.60;;;;;;;8.51;86.79;99829.98;1730452;83;21288;-70
2020/12/31 05:22:16;;;;;;;19.85;8.23;;;;;;;8.50;86.59;99820.11;1730585;83;21731;-69
2020/12/31 05:24:52;;;;;;;19.57;7.90;;;;;;;8.51;86.36;99821.80;1730615;83;21458;-67
2020/12/31 05:27:28;;;;;;;20.30;8.90;;;;;;;8.50;86.14;99839.22;1730639;83;21219;-67
2020/12/31 05:30:07;;;;;;;20.43;9.28;;;;;;;8.49;86.02;99832.07;1730696;83;21389;-68
2020/12/31 05:32:40;;;;;;;18.95;8.98;;;;;;;8.49;85.91;99837.53;1730725;83;21794;-66
2020/12/31 05:35:15;;;;;;;21.73;9.05;;;;;;;8.49;85.80;99843.52;1730466;83;21079;-68
2020/12/31 05:37:44;;;;;;;16.37;7.87;;;;;;;8.47;85.61;99846.44;1730568;83;21201;-69
2020/12/31 05:40:12;;;;;;;19.20;8.78;;;;;;;8.46;85.51;99846.13;1730409;83;21338;-66
2020/12/31 05:42:43;;;;;;;25.50;10.30;;;;;;;8.44;85.48;99844.08;1712386;83;21206;-67
2020/12/31 05:45:16;;;;;;;28.45;10.48;;;;;;;8.44;85.52;99849.53;1707988;83;21086;-69
2020/12/31 05:47:50;;;;;;;20.85;10.10;;;;;;;8.45;85.51;99847.16;1708047;84;21327;-68
2020/12/31 05:50:27;;;;;;;19.60;9.53;;;;;;;8.43;85.51;99858.77;1708162;83;21342;-67
2020/12/31 05:52:55;;;;;;;27.45;9.73;;;;;;;8.44;85.50;99853.63;1707957;83;21309;-70
2020/12/31 05:55:24;;;;;;;20.97;9.78;;;;;;;8.44;85.47;99850.91;1708033;84;21089;-68
2020/12/31 05:57:54;;;;;;;23.60;9.98;;;;;;;8.44;85.48;99854.99;1707985;83;21305;-68
2020/12/31 06:00:29;;;;;;;23.77;10.25;;;;;;;8.44;85.53;99860.45;1708235;83;21860;-68
2020/12/31 06:03:00;;;;;;;23.47;11.22;;;;;;;8.42;85.57;99854.34;1708261;83;21078;-68
2020/12/31 06:05:29;;;;;;;23.42;10.32;;;;;;;8.42;85.57;99857.08;1708032;83;21136;-68
2020/12/31 06:07:57;;;;;;;23.85;9.78;;;;;;;8.42;85.55;99865.27;1708459;83;21109;-67
2020/12/31 06:10:30;;;;;;;21.12;10.00;;;;;;;8.43;85.60;99869.69;1708120;83;21808;-67
2020/12/31 06:13:05;;;;;;;28.73;11.18;;;;;;;8.44;85.59;99875.47;1708254;83;21061;-69
2020/12/31 06:15:40;;;;;;;30.12;11.43;;;;;;;8.43;85.60;99877.03;1708591;83;21411;-69
2020/12/31 06:18:08;;;;;;;24.50;10.68;;;;;;;8.45;85.66;99873.58;1700501;83;21396;-69
2020/12/31 06:20:39;;;;;;;20.23;9.73;;;;;;;8.47;85.64;99880.57;1623999;87;21308;-67
2020/12/31 06:23:10;;;;;;;20.17;10.60;;;;;;;8.47;85.59;99874.27;1622504;87;21344;-69
2020/12/31 06:25:45;;;;;;;30.35;15.20;;;;;;;8.46;85.57;99881.61;1624460;87;21135;-68
2020/12/31 06:28:19;;;;;;;38.13;16.57;;;;;;;8.45;85.62;99887.23;1690667;84;21382;-68
2020/12/31 06:30:55;;;;;;;40.85;18.82;;;;;;;8.46;85.69;99884.34;1690700;84;21767;-67
2020/12/31 06:33:31;;;;;;;43.02;18.92;;;;;;;8.48;85.66;99885.51;1690561;84;21081;-68
2020/12/31 06:36:01;;;;;;;27.00;13.17;;;;;;;8.49;85.70;99886.67;1691134;84;21224;-68
2020/12/31 06:38:35;;;;;;;49.88;22.00;;;;;;;8.49;85.68;99877.13;1690960;84;21279;-68
2020/12/31 06:41:05;;;;;;;51.15;21.95;;;;;;;8.49;85.71;99880.38;1690807;84;21102;-69
2020/12/31 06:43:37;;;;;;;31.33;13.58;;;;;;;8.50;85.80;99881.55;1690775;84;21054;-69
2020/12/31 06:46:17;;;;;;;28.35;12.58;;;;;;;8.50;85.74;99882.91;1690756;84;21196;-70
2020/12/31 06:48:52;;;;;;;29.70;13.78;;;;;;;8.51;85.75;99876.41;1689522;84;21105;-68
2020/12/31 06:51:25;;;;;;;26.62;12.25;;;;;;;8.51;85.75;99883.23;1691263;84;21411;-68
2020/12/31 06:53:52;;;;;;;20.57;9.80;;;;;;;8.50;85.81;99884.27;1690718;84;21079;-68
2020/12/31 06:56:42;;;;;;;22.73;9.85;;;;;;;8.49;85.82;99886.67;1690796;84;21385;-67
2020/12/31 06:59:28;;;;;;;31.33;12.98;;;;;;;8.47;85.81;99891.49;1680045;84;21891;-67
2020/12/31 07:01:57;;;;;;;56.55;26.52;;;;;;;8.44;85.91;99883.66;1690679;84;22380;-69
2020/12/31 07:04:35;;;;;;;43.35;22.90;;;;;;;8.44;86.12;99894.58;1690800;84;21279;-67
2020/12/31 07:07:26;;;;;;;54.42;24.87;;;;;;;8.46;86.21;99896.63;1690775;84;21091;-67
2020/12/31 07:10:01;;;;;;;54.03;24.50;;;;;;;8.47;86.27;99892.02;1690593;84;21368;-68
2020/12/31 07:12:41;;;;;;;38.48;17.70;;;;;;;8.49;86.34;99891.30;1690732;84;21125;-68
2020/12/31 07:15:09;;;;;;;34.65;15.43;;;;;;;8.48;86.34;99890.97;1690487;84;21101;-68
2020/12/31 07:17:42;;;;;;;40.35;20.25;;;;;;;8.48;86.36;99890.97;1691071;84;21089;-68
2020/12/31 07:20:14;;;;;;;35.92;13.88;;;;;;;8.48;86.48;99884.98;1690823;84;21082;-68
2020/12/31 07:22:42;;;;;;;26.07;12.70;;;;;;;8.56;86.83;99890.83;1690956;84;21440;-69
2020/12/31 07:25:15;;;;;;;34.23;14.78;;;;;;;8.63;87.08;99898.55;1622526;87;21101;-69
2020/12/31 07:27:46;;;;;;;26.40;13.70;;;;;;;8.67;87.17;99903.10;1622090;88;21780;-69
2020/12/31 07:30:21;;;;;;;28.05;14.45;;;;;;;8.70;87.19;99904.07;1622212;87;21379;-67
2020/12/31 07:32:59;;;;;;;28.17;13.93;;;;;;;8.68;87.02;99903.42;1622483;87;21121;-71
2020/12/31 07:35:42;;;;;;;23.47;10.95;;;;;;;8.65;86.91;99901.09;1622563;87;21993;-69
2020/12/31 07:38:11;;;;;;;28.70;13.13;;;;;;;8.61;86.86;99900.64;1622628;87;21152;-69
2020/12/31 07:40:55;;;;;;;44.80;18.37;;;;;;;8.64;87.01;99906.23;1622669;87;21239;-68
2020/12/31 07:43:25;;;;;;;30.80;13.80;;;;;;;8.68;87.16;99907.00;1622616;87;21282;-70
2020/12/31 07:45:58;;;;;;;24.40;12.10;;;;;;;8.71;87.17;99911.22;1622883;87;21818;-70
2020/12/31 07:48:26;;;;;;;25.00;13.08;;;;;;;8.69;87.19;99914.16;1622518;87;21366;-68
2020/12/31 07:50:57;;;;;;;25.55;12.60;;;;;;;8.71;87.21;99918.05;1622666;87;21255;-69
2020/12/31 07:53:25;;;;;;;27.22;13.18;;;;;;;8.70;87.17;99921.30;1622558;87;21072;-70
2020/12/31 07:55:53;;;;;;;24.32;12.55;;;;;;;8.72;87.15;99919.73;1683469;84;21792;-69
2020/12/31 07:58:29;;;;;;;25.32;13.50;;;;;;;8.72;87.08;99926.56;1674604;84;21113;-68
2020/12/31 08:01:01;;;;;;;19.57;9.58;;;;;;;8.72;87.06;99927.93;1683250;84;21069;-68
2020/12/31 08:03:28;;;;;;;24.77;12.00;;;;;;;8.71;86.98;99928.98;1692383;84;21860;-69
2020/12/31 08:05:57;;;;;;;24.10;11.33;;;;;;;8.72;86.87;99933.39;1624041;88;21115;-69
2020/12/31 08:08:25;;;;;;;36.90;17.67;;;;;;;8.71;86.76;99931.70;1679432;84;21828;-71
2020/12/31 08:10:53;;;;;;;24.77;13.62;;;;;;;8.72;86.75;99936.12;1690648;83;21464;-69
2020/12/31 08:13:20;;;;;;;29.42;15.35;;;;;;;8.73;86.71;99929.10;1691517;84;21797;-69
2020/12/31 08:15:52;;;;;;;21.80;11.68;;;;;;;8.76;86.65;99936.05;1691955;84;21896;-70
2020/12/31 08:18:19;;;;;;;23.90;11.25;;;;;;;8.77;86.58;99933.65;1691432;83;21441;-69
2020/12/31 08:20:47;;;;;;;27.40;11.50;;;;;;;8.81;86.53;99936.30;1690723;84;21834;-70
2020/12/31 08:23:21;;;;;;;23.90;11.68;;;;;;;8.83;86.39;99936.44;1690757;84;21790;-69
2020/12/31 08:25:50;;;;;;;27.40;10.98;;;;;;;8.82;86.27;99932.53;1690639;84;21282;-71
2020/12/31 08:28:19;;;;;;;26.25;10.43;;;;;;;8.81;86.20;99928.11;1690793;84;21713;-71
2020/12/31 08:30:47;;;;;;;23.35;10.55;;;;;;;8.78;86.10;99923.89;1690097;84;21098;-71
2020/12/31 08:33:20;;;;;;;26.57;11.50;;;;;;;8.76;86.08;99927.34;1700039;84;21471;-70
2020/12/31 08:35:48;;;;;;;26.02;11.28;;;;;;;8.76;86.13;99917.78;1704592;83;21842;-70
2020/12/31 08:38:17;;;;;;;26.82;12.13;;;;;;;8.78;86.19;99918.95;1706883;84;21273;-69
2020/12/31 08:40:51;;;;;;;24.45;11.22;;;;;;;8.79;86.21;99914.66;1699117;84;21792;-69
2020/12/31 08:43:22;;;;;;;22.05;10.63;;;;;;;8.79;86.22;99920.63;1695110;84;21351;-69
2020/12/31 08:45:51;;;;;;;29.40;12.30;;;;;;;8.80;86.21;99921.80;1694981;84;21477;-70
2020/12/31 08:48:26;;;;;;;24.50;11.12;;;;;;;8.81;86.24;99920.77;1695145;84;21122;-68
2020/12/31 08:51:11;;;;;;;29.37;12.05;;;;;;;8.82;86.29;99914.78;1689407;84;21373;-70
2020/12/31 08:53:53;;;;;;;27.00;10.97;;;;;;;8.84;86.37;99916.27;1665918;84;21266;-70
2020/12/31 08:56:25;;;;;;;23.27;9.35;;;;;;;8.84;86.28;99910.80;1664326;86;21779;-68
2020/12/31 08:59:15;;;;;;;28.10;12.15;;;;;;;8.83;86.20;99915.09;1664345;85;21888;-70
2020/12/31 09:01:46;;;;;;;26.73;11.18;;;;;;;8.81;86.12;99911.72;1679385;84;21335;-69
2020/12/31 09:04:18;;;;;;;25.50;11.15;;;;;;;8.80;86.18;99914.97;1670922;84;21373;-66
2020/12/31 09:06:52;;;;;;;27.67;10.85;;;;;;;8.77;86.18;99917.26;1690394;84;21697;-68
2020/12/31 09:09:27;;;;;;;24.07;10.48;;;;;;;8.76;86.17;99916.94;1623809;87;21788;-69
2020/12/31 09:12:03;;;;;;;26.02;9.53;;;;;;;8.76;86.21;99920.51;1692277;84;21684;-70
2020/12/31 09:14:36;;;;;;;28.17;11.53;;;;;;;8.76;86.27;99919.14;1692133;84;21807;-68
2020/12/31 09:17:22;;;;;;;24.57;11.78;;;;;;;8.76;86.34;99918.30;1692408;84;21090;-71
2020/12/31 09:19:52;;;;;;;25.82;10.20;;;;;;;8.75;86.43;99905.69;1699485;82;21106;-68
2020/12/31 09:22:19;;;;;;;19.23;9.53;;;;;;;8.76;86.54;99909.58;1709529;82;21215;-69
2020/12/31 09:24:47;;;;;;;22.48;10.32;;;;;;;8.77;86.54;99907.70;1710778;82;21844;-71
2020/12/31 09:27:26;;;;;;;23.22;10.25;;;;;;;8.77;86.60;99910.43;1739976;82;21056;-70
2020/12/31 09:29:57;;;;;;;21.07;10.82;;;;;;;8.78;86.69;99917.06;1739616;82;21285;-68
2020/12/31 09:32:25;;;;;;;19.25;9.63;;;;;;;8.79;86.84;99911.08;1739859;82;21168;-68
2020/12/31 09:34:53;;;;;;;16.90;8.83;;;;;;;8.81;86.85;99913.94;1739845;82;21345;-67
2020/12/31 09:37:20;;;;;;;18.73;9.48;;;;;;;8.82;86.88;99911.52;1739906;82;21084;-69
2020/12/31 09:39:48;;;;;;;21.60;10.03;;;;;;;8.85;86.95;99910.28;1739825;82;21841;-71
2020/12/31 09:42:16;;;;;;;17.30;8.68;;;;;;;8.85;87.02;99903.45;1733317;82;21412;-69
2020/12/31 09:44:45;;;;;;;17.02;8.48;;;;;;;8.86;87.00;99904.63;1730521;83;21099;-68
2020/12/31 09:47:12;;;;;;;19.10;9.63;;;;;;;8.87;87.04;99902.73;1720970;82;21179;-70
2020/12/31 09:49:40;;;;;;;21.50;9.10;;;;;;;8.87;87.11;99902.73;1709595;82;21331;-70
2020/12/31 09:52:07;;;;;;;21.97;9.78;;;;;;;8.89;87.09;99900.64;1709093;82;21074;-70
2020/12/31 09:54:34;;;;;;;20.20;9.40;;;;;;;8.89;87.04;99889.20;1705618;83;21316;-69
2020/12/31 09:57:04;;;;;;;20.50;9.55;;;;;;;8.90;87.10;99896.87;1709254;82;21109;-71
2020/12/31 09:59:31;;;;;;;20.32;9.73;;;;;;;8.91;87.21;99894.46;1705355;82;21163;-67
2020/12/31 10:01:59;;;;;;;17.65;9.20;;;;;;;8.90;87.28;99895.50;1722507;82;21286;-70
2020/12/31 10:04:27;;;;;;;17.65;8.93;;;;;;;8.92;87.36;99889.31;1725073;82;21335;-69
2020/12/31 10:06:54;;;;;;;19.15;9.00;;;;;;;8.94;87.34;99889.96;1724421;82;21351;-70
2020/12/31 10:09:21;;;;;;;18.25;9.08;;;;;;;8.95;87.39;99885.34;1723250;82;21230;-69
2020/12/31 10:11:53;;;;;;;20.43;9.73;;;;;;;8.95;87.36;99888.08;1716960;82;21965;-69
2020/12/31 10:14:18;;;;;;;19.10;9.33;;;;;;;8.95;87.43;99886.19;1707693;83;21911;-68
2020/12/31 10:16:46;;;;;;;15.25;7.80;;;;;;;8.96;87.40;99881.56;1707732;83;21204;-68
2020/12/31 10:19:14;;;;;;;18.30;8.13;;;;;;;8.93;87.30;99873.77;1707748;83;21332;-70
2020/12/31 10:21:47;;;;;;;19.02;8.35;;;;;;;8.93;87.28;99874.61;1708536;82;21101;-68
2020/12/31 10:24:15;;;;;;;20.52;9.68;;;;;;;8.92;87.23;99872.92;1719961;82;21665;-70
2020/12/31 10:26:44;;;;;;;20.00;10.13;;;;;;;8.92;87.28;99872.92;1709627;82;21367;-69
2020/12/31 10:29:13;;;;;;;21.77;10.38;;;;;;;8.94;87.35;99869.47;1722852;82;21871;-71
2020/12/31 10:31:42;;;;;;;23.40;9.68;;;;;;;8.95;87.39;99861.59;1718601;82;21752;-69
2020/12/31 10:34:10;;;;;;;19.70;9.43;;;;;;;8.95;87.43;99861.59;1707761;82;21069;-71
2020/12/31 10:36:38;;;;;;;20.23;9.85;;;;;;;8.97;87.45;99870.44;1711965;82;21997;-70
2020/12/31 10:39:05;;;;;;;18.57;10.10;;;;;;;8.98;87.50;99858.46;1726329;82;21059;-70
2020/12/31 10:41:32;;;;;;;23.20;10.23;;;;;;;9.01;87.56;99859.43;1714013;82;21059;-68
2020/12/31 10:44:00;;;;;;;19.07;9.33;;;;;;;9.03;87.56;99852.39;1711317;82;21099;-68
2020/12/31 10:46:27;;;;;;;16.52;8.63;;;;;;;9.03;87.45;99844.20;1712617;82;21356;-66
2020/12/31 10:48:55;;;;;;;19.25;9.63;;;;;;;9.01;87.39;99847.13;1714779;82;21113;-69
2020/12/31 10:51:22;;;;;;;17.62;8.35;;;;;;;9.02;87.38;99841.98;1713455;82;21238;-67
2020/12/31 10:53:50;;;;;;;17.75;8.85;;;;;;;9.03;87.30;99841.47;1711924;82;21101;-69
2020/12/31 10:56:19;;;;;;;18.65;9.55;;;;;;;9.01;87.16;99842.19;1712537;82;21062;-67
2020/12/31 10:58:46;;;;;;;19.02;10.08;;;;;;;8.99;87.19;99842.91;1714047;82;21089;-68
2020/12/31 11:01:14;;;;;;;20.40;9.38;;;;;;;8.95;87.15;99838.38;1705993;82;21862;-67
2020/12/31 11:03:43;;;;;;;22.22;10.10;;;;;;;8.95;87.14;99837.00;1716104;82;21042;-68
2020/12/31 11:06:21;;;;;;;21.82;9.90;;;;;;;8.92;87.04;99839.30;1716021;82;21232;-69
2020/12/31 11:08:48;;;;;;;20.35;10.15;;;;;;;8.89;87.07;99834.55;1719425;82;21766;-68
2020/12/31 11:11:22;;;;;;;21.93;10.40;;;;;;;8.87;87.02;99842.63;1720242;82;21887;-67
2020/12/31 11:13:50;;;;;;;23.18;10.78;;;;;;;8.84;87.08;99834.84;1718677;82;21371;-68
2020/12/31 11:16:18;;;;;;;22.15;10.25;;;;;;;8.82;87.06;99834.19;1702907;82;21074;-67
2020/12/31 11:18:45;;;;;;;22.30;10.72;;;;;;;8.81;87.10;99836.08;1700077;82;21049;-69
2020/12/31 11:21:14;;;;;;;21.23;10.55;;;;;;;8.79;87.12;99834.07;1702461;82;21350;-69
2020/12/31 11:23:41;;;;;;;24.07;11.05;;;;;;;8.80;87.16;99839.02;1712934;82;21397;-68
2020/12/31 11:26:15;;;;;;;21.42;9.88;;;;;;;8.81;87.22;99837.97;1715011;82;21191;-67
2020/12/31 11:28:42;;;;;;;17.45;8.38;;;;;;;8.82;87.20;99839.13;1685724;82;21629;-69
2020/12/31 11:31:12;;;;;;;18.00;8.68;;;;;;;8.81;87.15;99843.44;1692054;82;21109;-69
2020/12/31 11:33:40;;;;;;;21.42;10.03;;;;;;;8.79;87.09;99840.06;1696898;82;21081;-70
2020/12/31 11:36:08;;;;;;;22.42;10.95;;;;;;;8.77;87.11;99840.78;1709991;82;21486;-69
2020/12/31 11:38:37;;;;;;;23.62;9.58;;;;;;;8.74;87.14;99839.30;1721008;82;21327;-68
2020/12/31 11:41:05;;;;;;;22.62;9.63;;;;;;;8.76;87.15;99838.57;1716111;82;21154;-67